createdAt,value
2019-02-25T00:00:40.239Z,5.65
2019-02-25T00:01:40.224Z,5.63
2019-02-25T00:02:40.217Z,5.57
2019-02-25T00:03:40.265Z,5.38
2019-02-25T00:04:40.195Z,5.49
2019-02-25T00:05:40.183Z,5.39
2019-02-25T00:06:40.173Z,5.36
2019-02-25T00:07:40.167Z,5.38
2019-02-25T00:08:40.157Z,5.39
2019-02-25T00:09:40.158Z,5.36
2019-02-25T00:10:40.130Z,5.35
2019-02-25T00:11:40.115Z,5.35
2019-02-25T00:12:40.107Z,5.31
2019-02-25T00:13:40.095Z,5.38
2019-02-25T00:14:40.128Z,5.38
2019-02-25T00:15:40.073Z,5.42
2019-02-25T00:16:40.063Z,5.38
2019-02-25T00:17:40.056Z,5.35
2019-02-25T00:18:40.040Z,5.39
2019-02-25T00:19:40.030Z,5.39
2019-02-25T00:20:40.059Z,5.40
2019-02-25T00:21:40.010Z,5.39
2019-02-25T00:22:39.999Z,5.39
2019-02-25T00:23:39.984Z,5.31
2019-02-25T00:24:39.977Z,5.22
2019-02-25T00:25:39.988Z,5.30
2019-02-25T00:26:39.953Z,5.31
2019-02-25T00:27:39.942Z,5.28
2019-02-25T00:28:39.931Z,5.22
2019-02-25T00:29:39.920Z,5.25
2019-02-25T00:30:39.949Z,5.21
2019-02-25T00:31:39.941Z,5.22
2019-02-25T00:32:39.891Z,5.15
2019-02-25T00:33:39.875Z,5.38
2019-02-25T00:34:39.865Z,5.31
2019-02-25T00:35:39.857Z,5.24
2019-02-25T00:36:39.888Z,5.22
2019-02-25T00:37:39.834Z,5.33
2019-02-25T00:38:39.823Z,5.30
2019-02-25T00:39:39.811Z,5.22
2019-02-25T00:40:39.807Z,5.28
2019-02-25T00:41:39.792Z,5.27
2019-02-25T00:42:39.818Z,5.21
2019-02-25T00:43:39.775Z,5.30
2019-02-25T00:44:39.765Z,5.27
2019-02-25T00:45:39.783Z,5.24
2019-02-25T00:46:39.739Z,5.17
2019-02-25T00:47:39.811Z,5.27
2019-02-25T00:48:39.721Z,5.24
2019-02-25T00:49:39.702Z,5.24
2019-02-25T00:50:39.705Z,5.21
2019-02-25T00:51:39.683Z,5.24
2019-02-25T00:52:39.675Z,5.22
2019-02-25T00:53:39.679Z,5.24
2019-02-25T00:54:39.650Z,5.21
2019-02-25T00:55:39.638Z,5.18
2019-02-25T00:56:39.626Z,5.10
2019-02-25T00:57:39.614Z,5.07
2019-02-25T00:58:39.663Z,5.12
2019-02-25T00:59:39.592Z,5.07
2019-02-25T01:00:39.584Z,5.17
2019-02-25T01:01:39.571Z,5.04
2019-02-25T01:02:39.563Z,5.02
2019-02-25T01:03:39.560Z,5.15
2019-02-25T01:04:39.605Z,5.13
2019-02-25T01:05:39.535Z,4.97
2019-02-25T01:06:39.523Z,5.00
2019-02-25T01:07:39.510Z,5.06
2019-02-25T01:08:39.495Z,4.97
2019-02-25T01:09:39.485Z,5.03
2019-02-25T01:10:39.535Z,5.04
2019-02-25T01:11:39.465Z,5.10
2019-02-25T01:12:39.452Z,5.09
2019-02-25T01:13:39.444Z,5.06
2019-02-25T01:14:39.432Z,5.09
2019-02-25T01:15:39.487Z,5.00
2019-02-25T01:16:39.412Z,5.04
2019-02-25T01:17:39.397Z,5.02
2019-02-25T01:18:39.386Z,4.99
2019-02-25T01:19:39.380Z,4.99
2019-02-25T01:20:39.364Z,4.99
2019-02-25T01:21:39.385Z,4.92
2019-02-25T01:22:39.388Z,4.92
2019-02-25T01:23:39.332Z,4.92
2019-02-25T01:24:39.322Z,4.86
2019-02-25T01:25:39.309Z,4.86
2019-02-25T01:26:39.307Z,4.84
2019-02-25T01:27:39.292Z,4.75
2019-02-25T01:28:39.318Z,4.69
2019-02-25T01:29:39.269Z,4.77
2019-02-25T01:30:39.262Z,4.63
2019-02-25T01:31:39.249Z,4.66
2019-02-25T01:32:39.233Z,4.62
2019-02-25T01:33:39.246Z,4.62
2019-02-25T01:34:39.219Z,4.62
2019-02-25T01:35:39.201Z,4.54
2019-02-25T01:36:39.197Z,4.62
2019-02-25T01:37:39.180Z,4.55
2019-02-25T01:38:39.212Z,4.52
2019-02-25T01:39:39.168Z,4.52
2019-02-25T01:40:39.149Z,4.62
2019-02-25T01:41:39.201Z,4.62
2019-02-25T01:42:39.127Z,4.65
2019-02-25T01:43:39.119Z,4.55
2019-02-25T01:44:39.107Z,4.55
2019-02-25T01:45:39.105Z,4.54
2019-02-25T01:46:39.085Z,4.55
2019-02-25T01:47:39.115Z,4.58
2019-02-25T01:48:39.089Z,4.55
2019-02-25T01:49:39.053Z,4.65
2019-02-25T01:50:39.039Z,4.59
2019-02-25T01:51:39.031Z,4.62
2019-02-25T01:52:39.020Z,4.48
2019-02-25T01:53:39.073Z,4.55
2019-02-25T01:54:38.995Z,4.55
2019-02-25T01:55:38.985Z,4.40
2019-02-25T01:56:38.977Z,4.42
2019-02-25T01:57:38.962Z,4.42
2019-02-25T01:58:38.953Z,4.37
2019-02-25T01:59:38.997Z,4.29
2019-02-25T02:00:38.933Z,4.36
2019-02-25T02:01:38.923Z,4.33
2019-02-25T02:02:38.909Z,4.32
2019-02-25T02:03:38.897Z,4.32
2019-02-25T02:04:38.889Z,4.27
2019-02-25T02:05:38.921Z,4.20
2019-02-25T02:06:38.867Z,4.27
2019-02-25T02:07:38.854Z,4.30
2019-02-25T02:08:38.850Z,4.26
2019-02-25T02:09:38.832Z,4.26
2019-02-25T02:10:38.884Z,4.22
2019-02-25T02:11:38.814Z,4.23
2019-02-25T02:12:38.801Z,4.26
2019-02-25T02:13:38.789Z,4.20
2019-02-25T02:14:38.784Z,4.12
2019-02-25T02:15:38.777Z,4.16
2019-02-25T02:16:38.821Z,4.09
2019-02-25T02:17:38.747Z,4.18
2019-02-25T02:18:38.748Z,4.11
2019-02-25T02:19:38.725Z,4.16
2019-02-25T02:20:38.716Z,4.04
2019-02-25T02:21:38.710Z,4.12
2019-02-25T02:22:38.751Z,4.18
2019-02-25T02:23:38.683Z,4.11
2019-02-25T02:24:38.676Z,4.09
2019-02-25T02:25:38.663Z,4.08
2019-02-25T02:26:38.662Z,4.06
2019-02-25T02:27:38.645Z,4.12
2019-02-25T02:28:38.668Z,3.97
2019-02-25T02:29:38.623Z,4.06
2019-02-25T02:30:38.607Z,4.00
2019-02-25T02:31:38.606Z,3.94
2019-02-25T02:32:38.617Z,3.90
2019-02-25T02:33:38.577Z,3.96
2019-02-25T02:34:38.566Z,3.90
2019-02-25T02:35:38.557Z,3.88
2019-02-25T02:36:38.547Z,3.86
2019-02-25T02:37:38.592Z,3.87
2019-02-25T02:38:38.523Z,3.86
2019-02-25T02:39:38.515Z,3.72
2019-02-25T02:40:38.501Z,3.84
2019-02-25T02:41:38.492Z,3.86
2019-02-25T02:42:38.487Z,3.72
2019-02-25T02:43:38.543Z,3.78
2019-02-25T02:44:38.459Z,3.79
2019-02-25T02:45:38.450Z,3.73
2019-02-25T02:46:38.437Z,3.70
2019-02-25T02:47:38.423Z,3.79
2019-02-25T02:48:38.415Z,3.84
2019-02-25T02:49:38.465Z,3.80
2019-02-25T02:50:38.402Z,3.78
2019-02-25T02:51:38.379Z,3.76
2019-02-25T02:52:38.369Z,3.73
2019-02-25T02:53:38.360Z,3.76
2019-02-25T02:54:38.357Z,3.73
2019-02-25T02:55:38.378Z,3.72
2019-02-25T02:56:38.328Z,3.69
2019-02-25T02:57:38.318Z,3.69
2019-02-25T02:58:38.309Z,3.62
2019-02-25T02:59:38.295Z,3.68
2019-02-25T03:00:38.327Z,3.68
2019-02-25T03:01:38.278Z,3.60
2019-02-25T03:02:38.261Z,3.54
2019-02-25T03:03:38.255Z,3.58
2019-02-25T03:04:38.245Z,3.51
2019-02-25T03:05:38.273Z,3.52
2019-02-25T03:06:38.220Z,3.45
2019-02-25T03:07:38.206Z,3.51
2019-02-25T03:08:38.205Z,3.57
2019-02-25T03:09:38.186Z,3.51
2019-02-25T03:10:38.185Z,3.47
2019-02-25T03:11:38.214Z,3.50
2019-02-25T03:12:38.154Z,3.42
2019-02-25T03:13:38.146Z,3.36
2019-02-25T03:14:38.138Z,3.39
2019-02-25T03:15:38.125Z,3.42
2019-02-25T03:16:38.112Z,3.45
2019-02-25T03:17:38.161Z,3.42
2019-02-25T03:18:38.091Z,3.47
2019-02-25T03:19:38.083Z,3.40
2019-02-25T03:20:38.067Z,3.29
2019-02-25T03:21:38.060Z,3.33
2019-02-25T03:22:38.054Z,3.26
2019-02-25T03:23:38.076Z,3.28
2019-02-25T03:24:38.023Z,3.23
2019-02-25T03:25:38.013Z,3.26
2019-02-25T03:26:38.003Z,3.21
2019-02-25T03:27:37.996Z,3.26
2019-02-25T03:28:38.021Z,3.35
2019-02-25T03:29:37.972Z,3.14
2019-02-25T03:30:37.969Z,3.15
2019-02-25T03:31:37.969Z,3.15
2019-02-25T03:32:37.941Z,3.17
2019-02-25T03:33:37.971Z,3.18
2019-02-25T03:34:37.943Z,3.14
2019-02-25T03:35:37.904Z,3.20
2019-02-25T03:36:37.893Z,3.18
2019-02-25T03:37:37.886Z,3.15
2019-02-25T03:38:37.917Z,3.15
2019-02-25T03:39:37.929Z,3.13
2019-02-25T03:40:37.853Z,3.14
2019-02-25T03:41:37.841Z,3.13
2019-02-25T03:42:37.852Z,3.13
2019-02-25T03:43:37.823Z,3.06
2019-02-25T03:44:37.814Z,3.13
2019-02-25T03:45:37.832Z,3.08
2019-02-25T03:46:37.832Z,3.06
2019-02-25T03:47:37.777Z,3.18
2019-02-25T03:48:37.766Z,3.02
2019-02-25T03:49:37.755Z,2.99
2019-02-25T03:50:37.754Z,3.02
2019-02-25T03:51:37.792Z,3.08
2019-02-25T03:52:37.729Z,3.02
2019-02-25T03:53:37.711Z,3.06
2019-02-25T03:54:37.700Z,3.05
2019-02-25T03:55:37.691Z,2.96
2019-02-25T03:56:37.678Z,3.08
2019-02-25T03:57:37.728Z,3.10
2019-02-25T03:58:37.656Z,3.11
2019-02-25T03:59:37.647Z,3.08
2019-02-25T04:00:37.635Z,3.06
2019-02-25T04:01:37.627Z,3.03
2019-02-25T04:02:37.617Z,3.17
2019-02-25T04:03:37.643Z,3.05
2019-02-25T04:04:37.632Z,3.03
2019-02-25T04:05:37.587Z,3.05
2019-02-25T04:06:37.569Z,3.11
2019-02-25T04:07:37.561Z,3.00
2019-02-25T04:08:37.590Z,3.03
2019-02-25T04:09:37.561Z,3.05
2019-02-25T04:10:37.569Z,3.03
2019-02-25T04:11:37.524Z,3.15
2019-02-25T04:12:37.505Z,3.02
2019-02-25T04:13:37.520Z,3.00
2019-02-25T04:14:37.484Z,3.02
2019-02-25T04:15:37.511Z,3.02
2019-02-25T04:16:37.467Z,2.99
2019-02-25T04:17:37.454Z,3.03
2019-02-25T04:18:37.442Z,3.06
2019-02-25T04:19:37.473Z,3.02
2019-02-25T04:20:37.444Z,3.03
2019-02-25T04:21:37.409Z,3.00
2019-02-25T04:22:37.397Z,2.97
2019-02-25T04:23:37.388Z,3.03
2019-02-25T04:24:37.423Z,2.99
2019-02-25T04:25:37.374Z,3.06
2019-02-25T04:26:37.400Z,3.06
2019-02-25T04:27:37.375Z,3.06
2019-02-25T04:28:37.333Z,2.97
2019-02-25T04:29:37.339Z,3.02
2019-02-25T04:30:37.311Z,2.97
2019-02-25T04:31:37.301Z,2.93
2019-02-25T04:32:37.320Z,2.96
2019-02-25T04:33:37.283Z,2.95
2019-02-25T04:34:37.316Z,2.89
2019-02-25T04:35:37.267Z,2.90
2019-02-25T04:36:37.248Z,2.87
2019-02-25T04:37:37.238Z,2.90
2019-02-25T04:38:37.227Z,2.90
2019-02-25T04:39:37.214Z,2.78
2019-02-25T04:40:37.244Z,2.92
2019-02-25T04:41:37.194Z,2.87
2019-02-25T04:42:37.184Z,2.89
2019-02-25T04:43:37.197Z,2.85
2019-02-25T04:44:37.160Z,2.72
2019-02-25T04:45:37.154Z,2.75
2019-02-25T04:46:37.144Z,2.74
2019-02-25T04:47:37.132Z,2.79
2019-02-25T04:48:37.162Z,2.74
2019-02-25T04:49:37.106Z,2.79
2019-02-25T04:50:37.119Z,2.82
2019-02-25T04:51:37.095Z,2.79
2019-02-25T04:52:37.075Z,2.81
2019-02-25T04:53:37.074Z,2.71
2019-02-25T04:54:37.105Z,2.69
2019-02-25T04:55:37.044Z,2.74
2019-02-25T04:56:37.035Z,2.72
2019-02-25T04:57:37.022Z,2.69
2019-02-25T04:58:44.050Z,2.72
2019-02-25T04:59:37.004Z,2.64
2019-02-25T05:00:37.033Z,2.67
2019-02-25T05:01:36.979Z,2.75
2019-02-25T05:02:36.969Z,2.67
2019-02-25T05:03:36.958Z,2.63
2019-02-25T05:04:36.944Z,2.63
2019-02-25T05:05:36.943Z,2.63
2019-02-25T05:06:36.954Z,2.66
2019-02-25T05:07:36.911Z,2.61
2019-02-25T05:08:36.902Z,2.60
2019-02-25T05:09:36.893Z,2.57
2019-02-25T05:10:36.921Z,2.61
2019-02-25T05:11:36.875Z,2.59
2019-02-25T05:12:36.862Z,2.57
2019-02-25T05:13:36.846Z,2.60
2019-02-25T05:14:36.871Z,2.63
2019-02-25T05:15:36.831Z,2.66
2019-02-25T05:16:36.815Z,2.63
2019-02-25T05:17:36.808Z,2.53
2019-02-25T05:18:36.796Z,2.53
2019-02-25T05:19:36.783Z,2.59
2019-02-25T05:20:36.813Z,2.52
2019-02-25T05:21:36.772Z,2.56
2019-02-25T05:22:37.578Z,2.56
2019-02-25T05:23:36.741Z,2.63
2019-02-25T05:24:36.726Z,2.42
2019-02-25T05:25:36.732Z,2.54
2019-02-25T05:26:36.705Z,2.48
2019-02-25T05:27:36.694Z,2.48
2019-02-25T05:28:36.686Z,2.43
2019-02-25T05:29:36.681Z,2.46
2019-02-25T05:30:36.686Z,2.39
2019-02-25T05:31:36.654Z,2.36
2019-02-25T05:32:36.657Z,2.42
2019-02-25T05:33:36.639Z,2.45
2019-02-25T05:34:36.619Z,2.39
2019-02-25T05:35:36.609Z,2.49
2019-02-25T05:36:36.629Z,2.42
2019-02-25T05:37:36.584Z,2.46
2019-02-25T05:38:36.581Z,2.38
2019-02-25T05:39:36.567Z,2.48
2019-02-25T05:40:36.577Z,2.52
2019-02-25T05:41:36.552Z,2.43
2019-02-25T05:42:36.538Z,2.43
2019-02-25T05:43:36.554Z,2.48
2019-02-25T05:44:36.512Z,2.49
2019-02-25T05:45:36.501Z,2.46
2019-02-25T05:46:36.507Z,2.46
2019-02-25T05:47:36.477Z,2.36
2019-02-25T05:48:36.469Z,2.46
2019-02-25T05:49:36.455Z,2.43
2019-02-25T05:50:36.480Z,2.42
2019-02-25T05:51:36.442Z,2.38
2019-02-25T05:52:36.423Z,2.41
2019-02-25T05:53:36.415Z,2.43
2019-02-25T05:54:36.424Z,2.43
2019-02-25T05:55:36.390Z,2.41
2019-02-25T05:56:36.398Z,2.43
2019-02-25T05:57:36.386Z,2.43
2019-02-25T05:58:36.358Z,2.35
2019-02-25T05:59:36.355Z,2.38
2019-02-25T06:00:36.339Z,2.38
2019-02-25T06:01:36.336Z,2.38
2019-02-25T06:02:36.333Z,2.46
2019-02-25T06:03:36.315Z,2.35
2019-02-25T06:04:36.296Z,2.39
2019-02-25T06:05:36.282Z,2.43
2019-02-25T06:06:36.276Z,2.34
2019-02-25T06:07:36.274Z,2.43
2019-02-25T06:08:36.262Z,2.31
2019-02-25T06:09:36.256Z,2.36
2019-02-25T06:10:36.230Z,2.28
2019-02-25T06:11:36.221Z,2.28
2019-02-25T06:12:36.206Z,2.28
2019-02-25T06:13:36.206Z,2.30
2019-02-25T06:14:36.197Z,2.28
2019-02-25T06:15:36.174Z,2.31
2019-02-25T06:16:36.164Z,2.31
2019-02-25T06:17:36.151Z,2.25
2019-02-25T06:18:36.146Z,2.31
2019-02-25T06:19:36.148Z,2.28
2019-02-25T06:20:36.118Z,2.28
2019-02-25T06:21:36.109Z,2.28
2019-02-25T06:22:36.107Z,2.28
2019-02-25T06:23:36.088Z,2.25
2019-02-25T06:24:36.078Z,2.21
2019-02-25T06:25:36.097Z,2.24
2019-02-25T06:26:36.057Z,2.20
2019-02-25T06:27:36.045Z,2.21
2019-02-25T06:28:36.034Z,2.21
2019-02-25T06:29:36.022Z,2.23
2019-02-25T06:30:36.011Z,2.24
2019-02-25T06:31:36.022Z,2.23
2019-02-25T06:32:35.998Z,2.24
2019-02-25T06:33:35.986Z,2.21
2019-02-25T06:34:35.978Z,2.21
2019-02-25T06:35:35.956Z,2.24
2019-02-25T06:36:35.953Z,2.27
2019-02-25T06:37:35.950Z,2.21
2019-02-25T06:38:35.923Z,2.17
2019-02-25T06:39:35.915Z,2.21
2019-02-25T06:40:35.903Z,2.21
2019-02-25T06:41:35.903Z,2.30
2019-02-25T06:42:35.894Z,2.17
2019-02-25T06:43:35.870Z,2.25
2019-02-25T06:44:35.862Z,2.23
2019-02-25T06:45:35.848Z,2.21
2019-02-25T06:46:35.850Z,2.21
2019-02-25T06:47:35.826Z,2.21
2019-02-25T06:48:35.816Z,2.25
2019-02-25T06:49:35.813Z,2.18
2019-02-25T06:50:35.795Z,2.28
